sensor_id;sensor_type;location;lat;lon;timestamp;temperature;humidity
11597;DHT22;5854;48.072;16.286;2023-05-16T00:02:01;15.10;60.10
11597;DHT22;5854;48.072;16.286;2023-05-16T00:04:30;15.10;60.20
11597;DHT22;5854;48.072;16.286;2023-05-16T00:06:58;15.10;60.70
11597;DHT22;5854;48.072;16.286;2023-05-16T00:09:25;15.00;60.40
11597;DHT22;5854;48.072;16.286;2023-05-16T00:11:52;15.00;59.70
11597;DHT22;5854;48.072;16.286;2023-05-16T00:14:20;15.00;60.40
11597;DHT22;5854;48.072;16.286;2023-05-16T00:16:51;15.00;59.50
11597;DHT22;5854;48.072;16.286;2023-05-16T00:19:18;14.90;60.90
11597;DHT22;5854;48.072;16.286;2023-05-16T00:21:45;14.80;60.70
11597;DHT22;5854;48.072;16.286;2023-05-16T00:24:12;14.90;61.00
11597;DHT22;5854;48.072;16.286;2023-05-16T00:26:40;14.90;58.90
11597;DHT22;5854;48.072;16.286;2023-05-16T00:29:07;14.90;60.30
11597;DHT22;5854;48.072;16.286;2023-05-16T00:31:35;14.80;59.60
11597;DHT22;5854;48.072;16.286;2023-05-16T00:34:02;14.70;61.00
11597;DHT22;5854;48.072;16.286;2023-05-16T00:36:29;14.80;61.30
11597;DHT22;5854;48.072;16.286;2023-05-16T00:38:56;14.80;59.50
11597;DHT22;5854;48.072;16.286;2023-05-16T00:41:23;14.80;61.10
11597;DHT22;5854;48.072;16.286;2023-05-16T00:43:51;14.70;61.00
11597;DHT22;5854;48.072;16.286;2023-05-16T00:46:18;14.70;60.70
11597;DHT22;5854;48.072;16.286;2023-05-16T00:48:46;14.80;60.70
11597;DHT22;5854;48.072;16.286;2023-05-16T00:51:13;14.80;60.30
11597;DHT22;5854;48.072;16.286;2023-05-16T00:53:40;14.80;60.50
11597;DHT22;5854;48.072;16.286;2023-05-16T00:56:07;14.80;61.10
11597;DHT22;5854;48.072;16.286;2023-05-16T00:58:35;14.60;60.30
11597;DHT22;5854;48.072;16.286;2023-05-16T01:01:03;14.70;60.50
11597;DHT22;5854;48.072;16.286;2023-05-16T01:03:30;14.70;61.50
11597;DHT22;5854;48.072;16.286;2023-05-16T01:05:58;14.70;60.80
11597;DHT22;5854;48.072;16.286;2023-05-16T01:08:25;14.70;60.60
11597;DHT22;5854;48.072;16.286;2023-05-16T01:10:59;14.70;60.90
11597;DHT22;5854;48.072;16.286;2023-05-16T01:13:35;14.60;60.30
11597;DHT22;5854;48.072;16.286;2023-05-16T01:16:12;14.60;60.80
11597;DHT22;5854;48.072;16.286;2023-05-16T01:18:47;14.70;60.20
11597;DHT22;5854;48.072;16.286;2023-05-16T01:21:33;14.60;60.90
11597;DHT22;5854;48.072;16.286;2023-05-16T01:24:12;14.70;61.30
11597;DHT22;5854;48.072;16.286;2023-05-16T01:26:43;14.60;61.20
11597;DHT22;5854;48.072;16.286;2023-05-16T01:29:11;14.60;61.00
11597;DHT22;5854;48.072;16.286;2023-05-16T01:31:38;14.60;61.50
11597;DHT22;5854;48.072;16.286;2023-05-16T01:34:05;14.50;61.30
11597;DHT22;5854;48.072;16.286;2023-05-16T01:36:40;14.60;61.30
11597;DHT22;5854;48.072;16.286;2023-05-16T01:39:15;14.60;61.10
11597;DHT22;5854;48.072;16.286;2023-05-16T01:41:54;14.60;60.90
11597;DHT22;5854;48.072;16.286;2023-05-16T01:44:30;14.50;61.60
11597;DHT22;5854;48.072;16.286;2023-05-16T01:47:00;14.50;61.60
11597;DHT22;5854;48.072;16.286;2023-05-16T01:49:33;14.60;61.60
11597;DHT22;5854;48.072;16.286;2023-05-16T01:52:07;14.50;61.20
11597;DHT22;5854;48.072;16.286;2023-05-16T01:54:38;14.50;61.30
11597;DHT22;5854;48.072;16.286;2023-05-16T01:57:12;14.50;61.70
11597;DHT22;5854;48.072;16.286;2023-05-16T01:59:40;14.50;61.10
11597;DHT22;5854;48.072;16.286;2023-05-16T02:02:07;14.50;61.90
11597;DHT22;5854;48.072;16.286;2023-05-16T02:04:34;14.50;61.80
11597;DHT22;5854;48.072;16.286;2023-05-16T02:07:02;14.50;61.00
11597;DHT22;5854;48.072;16.286;2023-05-16T02:09:29;14.50;61.30
11597;DHT22;5854;48.072;16.286;2023-05-16T02:11:56;14.50;62.00
11597;DHT22;5854;48.072;16.286;2023-05-16T02:14:26;14.50;60.90
11597;DHT22;5854;48.072;16.286;2023-05-16T02:16:53;14.40;61.40
11597;DHT22;5854;48.072;16.286;2023-05-16T02:19:20;14.40;61.60
11597;DHT22;5854;48.072;16.286;2023-05-16T02:21:47;14.40;61.70
11597;DHT22;5854;48.072;16.286;2023-05-16T02:24:15;14.40;61.70
11597;DHT22;5854;48.072;16.286;2023-05-16T02:26:42;14.40;61.50
11597;DHT22;5854;48.072;16.286;2023-05-16T02:29:09;14.40;61.60
11597;DHT22;5854;48.072;16.286;2023-05-16T02:31:38;14.40;61.80
11597;DHT22;5854;48.072;16.286;2023-05-16T02:34:07;14.40;62.00
11597;DHT22;5854;48.072;16.286;2023-05-16T02:36:34;14.30;60.90
11597;DHT22;5854;48.072;16.286;2023-05-16T02:39:01;14.40;61.80
11597;DHT22;5854;48.072;16.286;2023-05-16T02:41:29;14.30;61.30
11597;DHT22;5854;48.072;16.286;2023-05-16T02:43:57;14.40;61.70
11597;DHT22;5854;48.072;16.286;2023-05-16T02:46:26;14.30;62.30
11597;DHT22;5854;48.072;16.286;2023-05-16T02:48:56;14.30;62.00
11597;DHT22;5854;48.072;16.286;2023-05-16T02:51:25;14.40;61.70
11597;DHT22;5854;48.072;16.286;2023-05-16T02:53:53;14.30;61.50
11597;DHT22;5854;48.072;16.286;2023-05-16T02:56:21;14.30;61.70
11597;DHT22;5854;48.072;16.286;2023-05-16T02:58:49;14.30;60.90
11597;DHT22;5854;48.072;16.286;2023-05-16T03:01:16;14.30;62.00
11597;DHT22;5854;48.072;16.286;2023-05-16T03:03:43;14.30;60.80
11597;DHT22;5854;48.072;16.286;2023-05-16T03:06:12;14.30;62.10
11597;DHT22;5854;48.072;16.286;2023-05-16T03:08:39;14.20;61.50
11597;DHT22;5854;48.072;16.286;2023-05-16T03:11:06;14.30;62.00
11597;DHT22;5854;48.072;16.286;2023-05-16T03:13:33;14.20;60.70
11597;DHT22;5854;48.072;16.286;2023-05-16T03:16:00;14.20;61.80
11597;DHT22;5854;48.072;16.286;2023-05-16T03:18:27;14.20;61.60
11597;DHT22;5854;48.072;16.286;2023-05-16T03:20:54;14.20;62.00
11597;DHT22;5854;48.072;16.286;2023-05-16T03:23:23;14.20;60.70
11597;DHT22;5854;48.072;16.286;2023-05-16T03:25:51;14.20;61.30
11597;DHT22;5854;48.072;16.286;2023-05-16T03:28:18;14.20;62.10
11597;DHT22;5854;48.072;16.286;2023-05-16T03:30:45;14.20;61.70
11597;DHT22;5854;48.072;16.286;2023-05-16T03:33:12;14.30;61.80
11597;DHT22;5854;48.072;16.286;2023-05-16T03:35:39;14.30;61.60
11597;DHT22;5854;48.072;16.286;2023-05-16T03:38:06;14.30;61.20
11597;DHT22;5854;48.072;16.286;2023-05-16T03:40:35;14.30;61.60
11597;DHT22;5854;48.072;16.286;2023-05-16T03:43:02;14.30;61.00
11597;DHT22;5854;48.072;16.286;2023-05-16T03:45:29;14.30;61.30
11597;DHT22;5854;48.072;16.286;2023-05-16T03:47:57;14.20;60.90
11597;DHT22;5854;48.072;16.286;2023-05-16T03:50:24;14.20;60.90
11597;DHT22;5854;48.072;16.286;2023-05-16T03:52:51;14.20;61.70
11597;DHT22;5854;48.072;16.286;2023-05-16T03:55:19;14.20;61.30
11597;DHT22;5854;48.072;16.286;2023-05-16T03:57:48;14.20;61.40
11597;DHT22;5854;48.072;16.286;2023-05-16T04:00:17;14.20;61.50
11597;DHT22;5854;48.072;16.286;2023-05-16T04:02:44;14.30;61.50
11597;DHT22;5854;48.072;16.286;2023-05-16T04:05:11;14.20;60.90
11597;DHT22;5854;48.072;16.286;2023-05-16T04:07:39;14.20;61.60
11597;DHT22;5854;48.072;16.286;2023-05-16T04:10:07;14.30;61.80
11597;DHT22;5854;48.072;16.286;2023-05-16T04:12:35;14.30;61.40
11597;DHT22;5854;48.072;16.286;2023-05-16T04:15:05;14.20;61.30
11597;DHT22;5854;48.072;16.286;2023-05-16T04:17:32;14.30;61.60
11597;DHT22;5854;48.072;16.286;2023-05-16T04:19:59;14.30;61.10
11597;DHT22;5854;48.072;16.286;2023-05-16T04:22:27;14.30;61.10
11597;DHT22;5854;48.072;16.286;2023-05-16T04:24:54;14.30;61.30
11597;DHT22;5854;48.072;16.286;2023-05-16T04:27:21;14.30;61.30
11597;DHT22;5854;48.072;16.286;2023-05-16T04:29:49;14.30;61.30
11597;DHT22;5854;48.072;16.286;2023-05-16T04:32:19;14.40;60.80
11597;DHT22;5854;48.072;16.286;2023-05-16T04:34:48;14.30;60.90
11597;DHT22;5854;48.072;16.286;2023-05-16T04:37:20;14.30;61.20
11597;DHT22;5854;48.072;16.286;2023-05-16T04:39:51;14.40;60.90
11597;DHT22;5854;48.072;16.286;2023-05-16T04:42:19;14.40;60.90
11597;DHT22;5854;48.072;16.286;2023-05-16T04:47:18;14.40;60.70
11597;DHT22;5854;48.072;16.286;2023-05-16T04:49:50;14.50;60.70
11597;DHT22;5854;48.072;16.286;2023-05-16T04:52:31;14.40;60.50
11597;DHT22;5854;48.072;16.286;2023-05-16T04:55:20;14.50;60.70
11597;DHT22;5854;48.072;16.286;2023-05-16T04:57:47;14.50;60.50
11597;DHT22;5854;48.072;16.286;2023-05-16T05:08:01;14.40;61.20
11597;DHT22;5854;48.072;16.286;2023-05-16T05:34:07;14.70;61.80
11597;DHT22;5854;48.072;16.286;2023-05-16T05:36:36;14.80;60.60
11597;DHT22;5854;48.072;16.286;2023-05-16T05:39:03;14.90;60.60
11597;DHT22;5854;48.072;16.286;2023-05-16T05:41:35;14.80;60.00
11597;DHT22;5854;48.072;16.286;2023-05-16T05:44:08;14.80;59.20
11597;DHT22;5854;48.072;16.286;2023-05-16T05:46:38;14.80;59.80
11597;DHT22;5854;48.072;16.286;2023-05-16T05:49:07;14.80;59.70
11597;DHT22;5854;48.072;16.286;2023-05-16T05:51:37;14.80;59.80
11597;DHT22;5854;48.072;16.286;2023-05-16T05:59:40;14.80;60.80
11597;DHT22;5854;48.072;16.286;2023-05-16T06:02:17;14.80;59.80
11597;DHT22;5854;48.072;16.286;2023-05-16T06:04:46;14.80;60.30
11597;DHT22;5854;48.072;16.286;2023-05-16T06:07:15;14.80;59.70
11597;DHT22;5854;48.072;16.286;2023-05-16T06:51:42;15.10;59.20
11597;DHT22;5854;48.072;16.286;2023-05-16T06:54:10;15.10;59.60
11597;DHT22;5854;48.072;16.286;2023-05-16T08:17:30;14.50;66.00
11597;DHT22;5854;48.072;16.286;2023-05-16T10:32:49;14.20;69.50
11597;DHT22;5854;48.072;16.286;2023-05-16T10:35:22;14.00;72.00
11597;DHT22;5854;48.072;16.286;2023-05-16T10:37:49;14.00;69.30
11597;DHT22;5854;48.072;16.286;2023-05-16T10:40:17;13.90;68.80
11597;DHT22;5854;48.072;16.286;2023-05-16T10:42:54;13.80;76.00
11597;DHT22;5854;48.072;16.286;2023-05-16T10:45:22;13.80;72.50
11597;DHT22;5854;48.072;16.286;2023-05-16T10:47:55;13.90;74.00
11597;DHT22;5854;48.072;16.286;2023-05-16T10:50:35;13.80;70.40
11597;DHT22;5854;48.072;16.286;2023-05-16T10:53:19;13.80;75.30
11597;DHT22;5854;48.072;16.286;2023-05-16T10:56:04;13.90;72.60
11597;DHT22;5854;48.072;16.286;2023-05-16T10:58:44;13.90;74.70
11597;DHT22;5854;48.072;16.286;2023-05-16T11:01:20;13.90;72.40
11597;DHT22;5854;48.072;16.286;2023-05-16T11:04:07;13.90;73.00
11597;DHT22;5854;48.072;16.286;2023-05-16T11:06:44;14.00;71.10
11597;DHT22;5854;48.072;16.286;2023-05-16T11:09:20;14.00;71.70
11597;DHT22;5854;48.072;16.286;2023-05-16T11:11:57;14.10;73.00
11597;DHT22;5854;48.072;16.286;2023-05-16T11:14:26;14.10;73.10
11597;DHT22;5854;48.072;16.286;2023-05-16T11:17:01;14.10;73.70
11597;DHT22;5854;48.072;16.286;2023-05-16T11:19:37;14.20;69.40
11597;DHT22;5854;48.072;16.286;2023-05-16T11:22:11;14.20;70.70
11597;DHT22;5854;48.072;16.286;2023-05-16T11:24:50;14.20;74.50
11597;DHT22;5854;48.072;16.286;2023-05-16T11:27:26;14.30;72.70
11597;DHT22;5854;48.072;16.286;2023-05-16T11:29:57;14.20;76.10
11597;DHT22;5854;48.072;16.286;2023-05-16T11:32:25;14.20;75.30
11597;DHT22;5854;48.072;16.286;2023-05-16T11:34:54;14.20;77.30
11597;DHT22;5854;48.072;16.286;2023-05-16T11:37:22;14.20;75.40
11597;DHT22;5854;48.072;16.286;2023-05-16T11:39:49;14.20;72.00
11597;DHT22;5854;48.072;16.286;2023-05-16T11:42:16;14.20;71.70
11597;DHT22;5854;48.072;16.286;2023-05-16T11:44:43;14.20;74.50
11597;DHT22;5854;48.072;16.286;2023-05-16T11:47:11;14.30;75.00
11597;DHT22;5854;48.072;16.286;2023-05-16T11:49:38;14.30;68.80
11597;DHT22;5854;48.072;16.286;2023-05-16T11:52:07;14.30;75.40
11597;DHT22;5854;48.072;16.286;2023-05-16T11:54:35;14.20;75.20
11597;DHT22;5854;48.072;16.286;2023-05-16T11:57:03;14.20;79.10
11597;DHT22;5854;48.072;16.286;2023-05-16T11:59:30;14.30;71.20
11597;DHT22;5854;48.072;16.286;2023-05-16T12:02:02;14.30;77.20
11597;DHT22;5854;48.072;16.286;2023-05-16T12:04:30;14.20;78.60
11597;DHT22;5854;48.072;16.286;2023-05-16T12:06:59;14.20;70.90
11597;DHT22;5854;48.072;16.286;2023-05-16T12:09:28;14.30;70.50
11597;DHT22;5854;48.072;16.286;2023-05-16T12:11:55;14.30;72.70
11597;DHT22;5854;48.072;16.286;2023-05-16T12:14:23;14.30;70.30
11597;DHT22;5854;48.072;16.286;2023-05-16T12:16:51;14.40;74.30
11597;DHT22;5854;48.072;16.286;2023-05-16T12:19:19;14.30;74.50
11597;DHT22;5854;48.072;16.286;2023-05-16T12:21:47;14.30;71.40
11597;DHT22;5854;48.072;16.286;2023-05-16T12:24:18;14.20;74.10
11597;DHT22;5854;48.072;16.286;2023-05-16T12:26:46;14.00;75.70
11597;DHT22;5854;48.072;16.286;2023-05-16T12:29:13;14.00;73.80
11597;DHT22;5854;48.072;16.286;2023-05-16T12:31:41;14.10;79.10
11597;DHT22;5854;48.072;16.286;2023-05-16T12:34:16;14.00;80.80
11597;DHT22;5854;48.072;16.286;2023-05-16T12:36:45;14.10;75.40
11597;DHT22;5854;48.072;16.286;2023-05-16T12:39:16;14.10;75.60
11597;DHT22;5854;48.072;16.286;2023-05-16T12:41:45;14.10;75.80
11597;DHT22;5854;48.072;16.286;2023-05-16T12:44:13;14.10;79.00
11597;DHT22;5854;48.072;16.286;2023-05-16T12:46:44;14.10;74.50
11597;DHT22;5854;48.072;16.286;2023-05-16T12:49:13;14.00;74.60
11597;DHT22;5854;48.072;16.286;2023-05-16T12:51:47;14.10;73.00
11597;DHT22;5854;48.072;16.286;2023-05-16T12:54:15;14.00;75.50
11597;DHT22;5854;48.072;16.286;2023-05-16T12:56:43;14.00;74.40
11597;DHT22;5854;48.072;16.286;2023-05-16T12:59:11;14.10;75.90
11597;DHT22;5854;48.072;16.286;2023-05-16T13:01:39;14.10;77.30
11597;DHT22;5854;48.072;16.286;2023-05-16T13:04:06;14.00;76.30
11597;DHT22;5854;48.072;16.286;2023-05-16T13:06:34;13.90;76.50
11597;DHT22;5854;48.072;16.286;2023-05-16T13:09:02;13.90;77.30
11597;DHT22;5854;48.072;16.286;2023-05-16T13:11:29;13.90;78.10
11597;DHT22;5854;48.072;16.286;2023-05-16T13:13:56;13.90;76.60
11597;DHT22;5854;48.072;16.286;2023-05-16T13:16:25;13.90;76.40
11597;DHT22;5854;48.072;16.286;2023-05-16T13:18:52;14.00;75.30
11597;DHT22;5854;48.072;16.286;2023-05-16T13:21:19;13.90;82.90
11597;DHT22;5854;48.072;16.286;2023-05-16T13:23:47;13.80;76.40
11597;DHT22;5854;48.072;16.286;2023-05-16T13:26:14;13.80;82.40
11597;DHT22;5854;48.072;16.286;2023-05-16T13:28:41;13.80;78.70
11597;DHT22;5854;48.072;16.286;2023-05-16T13:31:08;13.90;82.50
11597;DHT22;5854;48.072;16.286;2023-05-16T13:33:36;13.90;78.60
11597;DHT22;5854;48.072;16.286;2023-05-16T13:36:05;13.90;76.30
11597;DHT22;5854;48.072;16.286;2023-05-16T13:38:34;13.80;78.30
11597;DHT22;5854;48.072;16.286;2023-05-16T13:41:01;13.80;82.30
11597;DHT22;5854;48.072;16.286;2023-05-16T13:43:28;13.80;77.60
11597;DHT22;5854;48.072;16.286;2023-05-16T13:45:55;13.90;76.80
11597;DHT22;5854;48.072;16.286;2023-05-16T13:48:22;13.90;73.40
11597;DHT22;5854;48.072;16.286;2023-05-16T13:50:53;13.90;74.70
11597;DHT22;5854;48.072;16.286;2023-05-16T13:53:20;14.00;79.00
11597;DHT22;5854;48.072;16.286;2023-05-16T13:55:52;14.00;76.00
11597;DHT22;5854;48.072;16.286;2023-05-16T13:58:19;14.20;76.20
11597;DHT22;5854;48.072;16.286;2023-05-16T14:00:47;14.10;77.40
11597;DHT22;5854;48.072;16.286;2023-05-16T14:03:14;14.10;74.60
11597;DHT22;5854;48.072;16.286;2023-05-16T14:05:42;14.00;77.90
11597;DHT22;5854;48.072;16.286;2023-05-16T14:08:12;14.00;73.80
11597;DHT22;5854;48.072;16.286;2023-05-16T14:10:41;14.00;74.90
11597;DHT22;5854;48.072;16.286;2023-05-16T14:13:14;14.00;75.90
11597;DHT22;5854;48.072;16.286;2023-05-16T14:15:44;13.90;78.20
11597;DHT22;5854;48.072;16.286;2023-05-16T14:18:16;13.90;75.70
11597;DHT22;5854;48.072;16.286;2023-05-16T14:20:46;13.90;77.40
11597;DHT22;5854;48.072;16.286;2023-05-16T14:23:16;13.80;77.20
11597;DHT22;5854;48.072;16.286;2023-05-16T14:25:43;13.70;75.10
11597;DHT22;5854;48.072;16.286;2023-05-16T14:28:10;13.80;73.60
11597;DHT22;5854;48.072;16.286;2023-05-16T14:30:38;13.90;76.80
11597;DHT22;5854;48.072;16.286;2023-05-16T14:33:07;13.90;77.00
11597;DHT22;5854;48.072;16.286;2023-05-16T14:35:34;13.90;78.90
11597;DHT22;5854;48.072;16.286;2023-05-16T14:38:02;13.80;83.70
11597;DHT22;5854;48.072;16.286;2023-05-16T14:40:31;13.80;77.20
11597;DHT22;5854;48.072;16.286;2023-05-16T14:42:58;13.80;77.70
11597;DHT22;5854;48.072;16.286;2023-05-16T14:45:28;13.70;78.70
11597;DHT22;5854;48.072;16.286;2023-05-16T14:47:55;13.70;79.10
11597;DHT22;5854;48.072;16.286;2023-05-16T14:50:22;13.70;78.80
11597;DHT22;5854;48.072;16.286;2023-05-16T14:52:50;13.70;76.70
11597;DHT22;5854;48.072;16.286;2023-05-16T14:55:18;13.70;80.20
11597;DHT22;5854;48.072;16.286;2023-05-16T14:57:47;13.70;80.70
11597;DHT22;5854;48.072;16.286;2023-05-16T15:00:15;13.60;77.60
11597;DHT22;5854;48.072;16.286;2023-05-16T15:02:43;13.70;76.60
11597;DHT22;5854;48.072;16.286;2023-05-16T15:05:11;13.60;76.40
11597;DHT22;5854;48.072;16.286;2023-05-16T15:07:38;13.60;74.40
11597;DHT22;5854;48.072;16.286;2023-05-16T15:10:06;13.60;77.10
11597;DHT22;5854;48.072;16.286;2023-05-16T15:12:37;13.60;79.60
11597;DHT22;5854;48.072;16.286;2023-05-16T15:15:08;13.60;79.80
11597;DHT22;5854;48.072;16.286;2023-05-16T15:17:36;13.50;81.10
11597;DHT22;5854;48.072;16.286;2023-05-16T15:20:05;13.60;79.50
11597;DHT22;5854;48.072;16.286;2023-05-16T15:22:38;13.60;79.20
11597;DHT22;5854;48.072;16.286;2023-05-16T15:25:07;13.60;81.00
11597;DHT22;5854;48.072;16.286;2023-05-16T15:28:05;13.60;84.90
11597;DHT22;5854;48.072;16.286;2023-05-16T15:30:35;13.70;84.00
11597;DHT22;5854;48.072;16.286;2023-05-16T15:33:02;13.60;82.00
11597;DHT22;5854;48.072;16.286;2023-05-16T15:35:29;13.50;83.30
11597;DHT22;5854;48.072;16.286;2023-05-16T15:37:58;13.50;83.90
11597;DHT22;5854;48.072;16.286;2023-05-16T15:40:27;13.50;82.70
11597;DHT22;5854;48.072;16.286;2023-05-16T15:42:54;13.40;84.00
11597;DHT22;5854;48.072;16.286;2023-05-16T15:45:22;13.40;83.20
11597;DHT22;5854;48.072;16.286;2023-05-16T15:47:50;13.30;84.20
11597;DHT22;5854;48.072;16.286;2023-05-16T15:50:17;13.40;86.10
11597;DHT22;5854;48.072;16.286;2023-05-16T15:52:45;13.40;84.30
11597;DHT22;5854;48.072;16.286;2023-05-16T15:55:12;13.40;83.40
11597;DHT22;5854;48.072;16.286;2023-05-16T15:57:39;13.40;82.40
11597;DHT22;5854;48.072;16.286;2023-05-16T16:00:09;13.40;80.80
11597;DHT22;5854;48.072;16.286;2023-05-16T16:02:36;13.40;79.50
11597;DHT22;5854;48.072;16.286;2023-05-16T16:05:06;13.50;80.30
11597;DHT22;5854;48.072;16.286;2023-05-16T16:07:34;13.40;82.70
11597;DHT22;5854;48.072;16.286;2023-05-16T16:10:01;13.40;83.90
11597;DHT22;5854;48.072;16.286;2023-05-16T16:12:28;13.40;81.60
11597;DHT22;5854;48.072;16.286;2023-05-16T16:14:56;13.40;80.80
11597;DHT22;5854;48.072;16.286;2023-05-16T16:17:23;13.40;80.40
11597;DHT22;5854;48.072;16.286;2023-05-16T16:19:50;13.40;80.80
11597;DHT22;5854;48.072;16.286;2023-05-16T16:22:19;13.30;80.40
11597;DHT22;5854;48.072;16.286;2023-05-16T16:24:46;13.40;80.30
11597;DHT22;5854;48.072;16.286;2023-05-16T16:29:48;13.40;79.30
11597;DHT22;5854;48.072;16.286;2023-05-16T16:32:16;13.40;81.20
11597;DHT22;5854;48.072;16.286;2023-05-16T16:40:19;13.30;82.30
11597;DHT22;5854;48.072;16.286;2023-05-16T16:48:24;13.10;86.90
11597;DHT22;5854;48.072;16.286;2023-05-16T17:03:59;13.20;82.70
11597;DHT22;5854;48.072;16.286;2023-05-16T17:06:45;13.10;82.60
11597;DHT22;5854;48.072;16.286;2023-05-16T17:16:53;13.30;80.20
11597;DHT22;5854;48.072;16.286;2023-05-16T17:19:25;13.20;80.90
11597;DHT22;5854;48.072;16.286;2023-05-16T17:21:53;13.20;79.80
11597;DHT22;5854;48.072;16.286;2023-05-16T17:24:20;13.20;81.60
11597;DHT22;5854;48.072;16.286;2023-05-16T17:26:47;13.20;81.10
11597;DHT22;5854;48.072;16.286;2023-05-16T17:29:15;13.10;84.80
11597;DHT22;5854;48.072;16.286;2023-05-16T17:31:42;13.00;84.40
11597;DHT22;5854;48.072;16.286;2023-05-16T17:34:09;13.00;87.40
11597;DHT22;5854;48.072;16.286;2023-05-16T17:36:37;13.00;83.30
11597;DHT22;5854;48.072;16.286;2023-05-16T17:39:04;13.10;81.40
11597;DHT22;5854;48.072;16.286;2023-05-16T17:41:34;13.10;85.00
11597;DHT22;5854;48.072;16.286;2023-05-16T17:44:01;13.10;81.40
11597;DHT22;5854;48.072;16.286;2023-05-16T17:46:31;13.00;82.60
11597;DHT22;5854;48.072;16.286;2023-05-16T17:48:58;13.00;80.00
11597;DHT22;5854;48.072;16.286;2023-05-16T17:51:25;12.90;83.30
11597;DHT22;5854;48.072;16.286;2023-05-16T17:53:54;12.80;89.00
11597;DHT22;5854;48.072;16.286;2023-05-16T17:56:21;12.80;91.20
11597;DHT22;5854;48.072;16.286;2023-05-16T17:58:48;12.80;90.00
11597;DHT22;5854;48.072;16.286;2023-05-16T18:01:15;12.80;89.70
11597;DHT22;5854;48.072;16.286;2023-05-16T18:03:44;12.80;89.70
11597;DHT22;5854;48.072;16.286;2023-05-16T18:06:11;12.80;89.00
11597;DHT22;5854;48.072;16.286;2023-05-16T18:08:38;12.70;91.70
11597;DHT22;5854;48.072;16.286;2023-05-16T18:11:07;12.70;92.70
11597;DHT22;5854;48.072;16.286;2023-05-16T18:13:34;12.60;93.30
11597;DHT22;5854;48.072;16.286;2023-05-16T18:16:01;12.70;92.10
11597;DHT22;5854;48.072;16.286;2023-05-16T18:18:28;12.60;89.80
11597;DHT22;5854;48.072;16.286;2023-05-16T18:20:56;12.70;90.20
11597;DHT22;5854;48.072;16.286;2023-05-16T18:23:24;12.70;93.20
11597;DHT22;5854;48.072;16.286;2023-05-16T18:25:51;12.70;93.60
11597;DHT22;5854;48.072;16.286;2023-05-16T18:28:19;12.70;92.70
11597;DHT22;5854;48.072;16.286;2023-05-16T18:30:47;12.70;94.00
11597;DHT22;5854;48.072;16.286;2023-05-16T18:33:14;12.70;93.80
11597;DHT22;5854;48.072;16.286;2023-05-16T18:35:42;12.70;89.50
11597;DHT22;5854;48.072;16.286;2023-05-16T18:38:09;12.70;88.20
11597;DHT22;5854;48.072;16.286;2023-05-16T18:40:36;12.70;92.50
11597;DHT22;5854;48.072;16.286;2023-05-16T18:43:03;12.60;98.20
11597;DHT22;5854;48.072;16.286;2023-05-16T18:45:31;12.60;93.20
11597;DHT22;5854;48.072;16.286;2023-05-16T19:00:59;12.70;89.10
11597;DHT22;5854;48.072;16.286;2023-05-16T19:03:29;12.70;88.20
11597;DHT22;5854;48.072;16.286;2023-05-16T19:06:10;12.60;90.20
11597;DHT22;5854;48.072;16.286;2023-05-16T19:11:29;12.60;92.40
11597;DHT22;5854;48.072;16.286;2023-05-16T19:14:05;12.70;94.40
11597;DHT22;5854;48.072;16.286;2023-05-16T19:16:52;12.70;94.30
11597;DHT22;5854;48.072;16.286;2023-05-16T19:19:38;12.60;95.00
11597;DHT22;5854;48.072;16.286;2023-05-16T19:22:23;12.70;88.60
11597;DHT22;5854;48.072;16.286;2023-05-16T19:24:54;12.60;93.90
11597;DHT22;5854;48.072;16.286;2023-05-16T19:27:26;12.70;91.60
11597;DHT22;5854;48.072;16.286;2023-05-16T19:30:10;12.70;93.60
11597;DHT22;5854;48.072;16.286;2023-05-16T19:32:41;12.80;94.00
11597;DHT22;5854;48.072;16.286;2023-05-16T19:35:17;12.70;88.80
11597;DHT22;5854;48.072;16.286;2023-05-16T19:38:13;12.60;89.80
11597;DHT22;5854;48.072;16.286;2023-05-16T19:40:47;12.60;88.30
11597;DHT22;5854;48.072;16.286;2023-05-16T19:43:52;12.60;93.70
11597;DHT22;5854;48.072;16.286;2023-05-16T19:46:45;12.50;90.60
11597;DHT22;5854;48.072;16.286;2023-05-16T19:49:47;12.50;96.40
11597;DHT22;5854;48.072;16.286;2023-05-16T19:54:46;12.60;91.30
11597;DHT22;5854;48.072;16.286;2023-05-16T19:57:33;12.60;92.70
11597;DHT22;5854;48.072;16.286;2023-05-16T20:03:14;12.50;91.70
11597;DHT22;5854;48.072;16.286;2023-05-16T20:06:15;12.50;91.70
11597;DHT22;5854;48.072;16.286;2023-05-16T20:11:22;12.50;89.90
11597;DHT22;5854;48.072;16.286;2023-05-16T20:12:57;12.50;91.70
11597;DHT22;5854;48.072;16.286;2023-05-16T20:15:27;12.50;86.10
11597;DHT22;5854;48.072;16.286;2023-05-16T20:17:54;12.50;93.00
11597;DHT22;5854;48.072;16.286;2023-05-16T20:20:21;12.50;90.80
11597;DHT22;5854;48.072;16.286;2023-05-16T20:22:50;12.50;93.00
11597;DHT22;5854;48.072;16.286;2023-05-16T20:25:17;12.50;91.90
11597;DHT22;5854;48.072;16.286;2023-05-16T20:27:44;12.50;96.70
11597;DHT22;5854;48.072;16.286;2023-05-16T20:30:12;12.50;92.00
11597;DHT22;5854;48.072;16.286;2023-05-16T20:32:39;12.50;90.10
11597;DHT22;5854;48.072;16.286;2023-05-16T20:35:07;12.50;92.10
11597;DHT22;5854;48.072;16.286;2023-05-16T20:37:36;12.50;90.70
11597;DHT22;5854;48.072;16.286;2023-05-16T20:40:06;12.50;92.90
11597;DHT22;5854;48.072;16.286;2023-05-16T20:42:34;12.60;90.00
11597;DHT22;5854;48.072;16.286;2023-05-16T20:45:01;12.50;91.20
11597;DHT22;5854;48.072;16.286;2023-05-16T20:47:28;12.50;91.70
11597;DHT22;5854;48.072;16.286;2023-05-16T20:49:55;12.60;87.70
11597;DHT22;5854;48.072;16.286;2023-05-16T20:52:22;12.50;90.50
11597;DHT22;5854;48.072;16.286;2023-05-16T20:54:49;12.50;88.80
11597;DHT22;5854;48.072;16.286;2023-05-16T20:57:18;12.50;91.40
11597;DHT22;5854;48.072;16.286;2023-05-16T20:59:45;12.50;92.60
11597;DHT22;5854;48.072;16.286;2023-05-16T21:02:12;12.40;94.60
11597;DHT22;5854;48.072;16.286;2023-05-16T21:04:39;12.40;92.40
11597;DHT22;5854;48.072;16.286;2023-05-16T21:07:06;12.40;91.90
11597;DHT22;5854;48.072;16.286;2023-05-16T21:09:35;12.50;90.90
11597;DHT22;5854;48.072;16.286;2023-05-16T21:12:04;12.50;92.90
11597;DHT22;5854;48.072;16.286;2023-05-16T21:14:33;12.50;94.40
11597;DHT22;5854;48.072;16.286;2023-05-16T21:17:01;12.40;93.10
11597;DHT22;5854;48.072;16.286;2023-05-16T21:19:28;12.40;88.40
11597;DHT22;5854;48.072;16.286;2023-05-16T21:21:59;12.50;92.40
11597;DHT22;5854;48.072;16.286;2023-05-16T21:24:27;12.50;91.90
11597;DHT22;5854;48.072;16.286;2023-05-16T21:26:54;12.50;96.00
11597;DHT22;5854;48.072;16.286;2023-05-16T21:29:21;12.40;89.90
11597;DHT22;5854;48.072;16.286;2023-05-16T21:31:50;12.40;92.40
11597;DHT22;5854;48.072;16.286;2023-05-16T21:34:17;12.40;90.10
11597;DHT22;5854;48.072;16.286;2023-05-16T21:36:44;12.40;86.80
11597;DHT22;5854;48.072;16.286;2023-05-16T21:39:11;12.40;90.00